sensor_id;sensor_type;location;lat;lon;timestamp;temperature;humidity
15003;DHT22;7597;53.590;10.020;2022-12-07T00:02:24;3.30;99.90
15003;DHT22;7597;53.590;10.020;2022-12-07T00:04:51;3.30;99.90
15003;DHT22;7597;53.590;10.020;2022-12-07T00:07:17;3.30;99.90
15003;DHT22;7597;53.590;10.020;2022-12-07T00:09:44;3.30;99.90
15003;DHT22;7597;53.590;10.020;2022-12-07T00:12:11;3.30;99.90
15003;DHT22;7597;53.590;10.020;2022-12-07T00:14:38;3.30;99.90
15003;DHT22;7597;53.590;10.020;2022-12-07T00:17:04;3.30;99.90
15003;DHT22;7597;53.590;10.020;2022-12-07T00:19:32;3.30;99.90
15003;DHT22;7597;53.590;10.020;2022-12-07T00:21:59;3.30;99.90
15003;DHT22;7597;53.590;10.020;2022-12-07T00:24:25;3.30;99.90
15003;DHT22;7597;53.590;10.020;2022-12-07T00:26:52;3.30;99.90
15003;DHT22;7597;53.590;10.020;2022-12-07T00:29:19;3.30;99.90
15003;DHT22;7597;53.590;10.020;2022-12-07T00:31:46;3.30;99.90
15003;DHT22;7597;53.590;10.020;2022-12-07T00:34:14;3.30;99.90
15003;DHT22;7597;53.590;10.020;2022-12-07T00:36:39;3.30;99.90
15003;DHT22;7597;53.590;10.020;2022-12-07T00:39:06;3.40;99.90
15003;DHT22;7597;53.590;10.020;2022-12-07T00:41:33;3.40;99.90
15003;DHT22;7597;53.590;10.020;2022-12-07T00:43:59;3.90;99.90
15003;DHT22;7597;53.590;10.020;2022-12-07T00:46:26;3.40;99.90
15003;DHT22;7597;53.590;10.020;2022-12-07T00:48:53;3.50;99.90
15003;DHT22;7597;53.590;10.020;2022-12-07T00:51:20;3.50;99.90
15003;DHT22;7597;53.590;10.020;2022-12-07T00:53:46;3.50;99.90
15003;DHT22;7597;53.590;10.020;2022-12-07T00:56:15;3.50;99.90
15003;DHT22;7597;53.590;10.020;2022-12-07T00:58:41;3.50;99.90
15003;DHT22;7597;53.590;10.020;2022-12-07T01:01:08;3.40;99.90
15003;DHT22;7597;53.590;10.020;2022-12-07T01:03:34;3.50;99.90
15003;DHT22;7597;53.590;10.020;2022-12-07T01:06:01;3.50;99.90
15003;DHT22;7597;53.590;10.020;2022-12-07T01:08:28;3.50;99.90
15003;DHT22;7597;53.590;10.020;2022-12-07T01:11:02;3.50;99.90
15003;DHT22;7597;53.590;10.020;2022-12-07T01:13:27;3.50;99.90
15003;DHT22;7597;53.590;10.020;2022-12-07T01:15:56;3.60;99.90
15003;DHT22;7597;53.590;10.020;2022-12-07T01:18:20;3.50;99.90
15003;DHT22;7597;53.590;10.020;2022-12-07T01:20:56;3.50;99.90
15003;DHT22;7597;53.590;10.020;2022-12-07T01:23:14;3.40;99.90
15003;DHT22;7597;53.590;10.020;2022-12-07T01:25:40;3.40;99.90
15003;DHT22;7597;53.590;10.020;2022-12-07T01:28:08;3.40;99.90
15003;DHT22;7597;53.590;10.020;2022-12-07T01:30:34;3.40;99.90
15003;DHT22;7597;53.590;10.020;2022-12-07T01:33:01;3.30;99.90
15003;DHT22;7597;53.590;10.020;2022-12-07T01:35:28;3.30;99.90
15003;DHT22;7597;53.590;10.020;2022-12-07T01:37:54;3.30;99.90
15003;DHT22;7597;53.590;10.020;2022-12-07T01:40:21;3.30;99.90
15003;DHT22;7597;53.590;10.020;2022-12-07T01:42:48;3.30;99.90
15003;DHT22;7597;53.590;10.020;2022-12-07T01:47:53;3.30;99.90
15003;DHT22;7597;53.590;10.020;2022-12-07T01:50:20;3.30;99.90
15003;DHT22;7597;53.590;10.020;2022-12-07T01:52:48;3.20;99.90
15003;DHT22;7597;53.590;10.020;2022-12-07T01:55:13;3.20;99.90
15003;DHT22;7597;53.590;10.020;2022-12-07T01:57:41;3.20;99.90
15003;DHT22;7597;53.590;10.020;2022-12-07T02:00:07;3.10;99.90
15003;DHT22;7597;53.590;10.020;2022-12-07T02:02:35;3.30;99.90
15003;DHT22;7597;53.590;10.020;2022-12-07T02:05:01;3.00;99.90
15003;DHT22;7597;53.590;10.020;2022-12-07T02:07:27;3.00;99.90
15003;DHT22;7597;53.590;10.020;2022-12-07T02:09:54;2.90;99.90
15003;DHT22;7597;53.590;10.020;2022-12-07T02:12:20;2.90;99.90
15003;DHT22;7597;53.590;10.020;2022-12-07T02:14:47;2.90;99.90
15003;DHT22;7597;53.590;10.020;2022-12-07T02:17:21;2.90;99.90
15003;DHT22;7597;53.590;10.020;2022-12-07T02:20:10;2.80;99.90
15003;DHT22;7597;53.590;10.020;2022-12-07T02:28:31;2.80;99.90
15003;DHT22;7597;53.590;10.020;2022-12-07T02:30:58;3.00;99.90
15003;DHT22;7597;53.590;10.020;2022-12-07T02:33:28;2.70;99.90
15003;DHT22;7597;53.590;10.020;2022-12-07T02:35:57;2.70;99.90
15003;DHT22;7597;53.590;10.020;2022-12-07T02:38:27;2.70;99.90
15003;DHT22;7597;53.590;10.020;2022-12-07T02:40:55;2.70;99.90
15003;DHT22;7597;53.590;10.020;2022-12-07T02:43:28;2.60;99.90
15003;DHT22;7597;53.590;10.020;2022-12-07T02:45:56;2.60;99.90
15003;DHT22;7597;53.590;10.020;2022-12-07T02:48:21;2.60;99.90
15003;DHT22;7597;53.590;10.020;2022-12-07T02:50:49;2.60;99.90
15003;DHT22;7597;53.590;10.020;2022-12-07T02:55:53;2.60;99.90
15003;DHT22;7597;53.590;10.020;2022-12-07T02:58:25;2.50;99.90
15003;DHT22;7597;53.590;10.020;2022-12-07T03:00:54;2.50;99.90
15003;DHT22;7597;53.590;10.020;2022-12-07T03:03:18;2.90;99.90
15003;DHT22;7597;53.590;10.020;2022-12-07T03:06:03;2.40;99.90
15003;DHT22;7597;53.590;10.020;2022-12-07T03:08:47;2.40;99.90
15003;DHT22;7597;53.590;10.020;2022-12-07T03:11:13;2.30;99.90
15003;DHT22;7597;53.590;10.020;2022-12-07T03:13:58;2.30;99.90
15003;DHT22;7597;53.590;10.020;2022-12-07T03:16:27;2.30;99.90
15003;DHT22;7597;53.590;10.020;2022-12-07T03:18:58;2.20;99.90
15003;DHT22;7597;53.590;10.020;2022-12-07T03:21:25;2.10;99.90
15003;DHT22;7597;53.590;10.020;2022-12-07T03:23:51;2.00;99.90
15003;DHT22;7597;53.590;10.020;2022-12-07T03:26:17;2.10;99.90
15003;DHT22;7597;53.590;10.020;2022-12-07T03:28:45;2.00;99.90
15003;DHT22;7597;53.590;10.020;2022-12-07T03:31:13;2.00;99.90
15003;DHT22;7597;53.590;10.020;2022-12-07T03:34:04;1.90;99.90
15003;DHT22;7597;53.590;10.020;2022-12-07T03:36:39;1.90;99.90
15003;DHT22;7597;53.590;10.020;2022-12-07T03:39:23;2.00;99.90
15003;DHT22;7597;53.590;10.020;2022-12-07T03:41:48;1.90;99.90
15003;DHT22;7597;53.590;10.020;2022-12-07T03:44:15;1.90;99.90
15003;DHT22;7597;53.590;10.020;2022-12-07T03:49:28;1.80;99.90
15003;DHT22;7597;53.590;10.020;2022-12-07T03:51:56;1.90;99.90
15003;DHT22;7597;53.590;10.020;2022-12-07T03:54:26;1.80;99.90
15003;DHT22;7597;53.590;10.020;2022-12-07T03:56:51;1.80;99.90
15003;DHT22;7597;53.590;10.020;2022-12-07T03:59:18;1.70;99.90
15003;DHT22;7597;53.590;10.020;2022-12-07T04:01:47;1.90;99.90
15003;DHT22;7597;53.590;10.020;2022-12-07T04:04:11;1.70;99.90
15003;DHT22;7597;53.590;10.020;2022-12-07T04:06:38;1.70;99.90
15003;DHT22;7597;53.590;10.020;2022-12-07T04:09:05;1.70;99.90
15003;DHT22;7597;53.590;10.020;2022-12-07T04:11:31;1.70;99.90
15003;DHT22;7597;53.590;10.020;2022-12-07T04:13:58;1.60;99.90
15003;DHT22;7597;53.590;10.020;2022-12-07T04:16:30;1.60;99.90
15003;DHT22;7597;53.590;10.020;2022-12-07T04:18:57;1.60;99.90
15003;DHT22;7597;53.590;10.020;2022-12-07T04:21:23;1.50;99.90
15003;DHT22;7597;53.590;10.020;2022-12-07T04:23:50;1.50;99.90
15003;DHT22;7597;53.590;10.020;2022-12-07T04:26:17;1.50;99.90
15003;DHT22;7597;53.590;10.020;2022-12-07T04:28:44;1.50;99.90
15003;DHT22;7597;53.590;10.020;2022-12-07T04:31:10;1.90;99.90
15003;DHT22;7597;53.590;10.020;2022-12-07T04:33:37;1.40;99.90
15003;DHT22;7597;53.590;10.020;2022-12-07T04:36:04;1.40;99.90
15003;DHT22;7597;53.590;10.020;2022-12-07T04:38:31;1.40;99.90
15003;DHT22;7597;53.590;10.020;2022-12-07T04:40:57;1.40;99.90
15003;DHT22;7597;53.590;10.020;2022-12-07T04:43:24;1.40;99.90
15003;DHT22;7597;53.590;10.020;2022-12-07T04:45:50;1.30;99.90
15003;DHT22;7597;53.590;10.020;2022-12-07T04:48:17;1.40;1.00
15003;DHT22;7597;53.590;10.020;2022-12-07T04:50:44;1.30;1.00
15003;DHT22;7597;53.590;10.020;2022-12-07T04:53:10;1.30;1.00
15003;DHT22;7597;53.590;10.020;2022-12-07T04:55:37;1.30;1.00
15003;DHT22;7597;53.590;10.020;2022-12-07T04:58:04;1.20;1.00
15003;DHT22;7597;53.590;10.020;2022-12-07T05:00:31;1.10;1.00
15003;DHT22;7597;53.590;10.020;2022-12-07T05:02:58;1.10;1.00
15003;DHT22;7597;53.590;10.020;2022-12-07T05:05:24;1.10;1.00
15003;DHT22;7597;53.590;10.020;2022-12-07T05:07:52;1.00;1.00
15003;DHT22;7597;53.590;10.020;2022-12-07T05:10:19;1.00;1.00
15003;DHT22;7597;53.590;10.020;2022-12-07T05:12:46;1.10;1.00
15003;DHT22;7597;53.590;10.020;2022-12-07T05:15:14;1.10;1.00
15003;DHT22;7597;53.590;10.020;2022-12-07T05:17:40;1.10;1.00
15003;DHT22;7597;53.590;10.020;2022-12-07T05:20:07;1.20;1.00
15003;DHT22;7597;53.590;10.020;2022-12-07T05:22:34;1.10;1.00
15003;DHT22;7597;53.590;10.020;2022-12-07T05:25:00;1.10;1.00
15003;DHT22;7597;53.590;10.020;2022-12-07T05:27:27;1.20;1.00
15003;DHT22;7597;53.590;10.020;2022-12-07T05:29:54;1.20;1.00
15003;DHT22;7597;53.590;10.020;2022-12-07T05:32:20;1.10;1.00
15003;DHT22;7597;53.590;10.020;2022-12-07T05:34:47;1.10;1.00
15003;DHT22;7597;53.590;10.020;2022-12-07T05:37:13;1.10;1.00
15003;DHT22;7597;53.590;10.020;2022-12-07T05:39:40;1.10;1.00
15003;DHT22;7597;53.590;10.020;2022-12-07T05:42:08;1.10;1.00
15003;DHT22;7597;53.590;10.020;2022-12-07T05:44:39;1.10;1.00
15003;DHT22;7597;53.590;10.020;2022-12-07T05:47:05;1.10;1.00
15003;DHT22;7597;53.590;10.020;2022-12-07T05:49:33;1.20;1.00
15003;DHT22;7597;53.590;10.020;2022-12-07T05:51:59;1.20;1.00
15003;DHT22;7597;53.590;10.020;2022-12-07T05:54:26;1.20;1.00
15003;DHT22;7597;53.590;10.020;2022-12-07T05:56:54;1.10;1.00
15003;DHT22;7597;53.590;10.020;2022-12-07T05:59:20;1.10;1.00
15003;DHT22;7597;53.590;10.020;2022-12-07T06:01:50;1.00;1.00
15003;DHT22;7597;53.590;10.020;2022-12-07T06:04:17;1.10;1.00
15003;DHT22;7597;53.590;10.020;2022-12-07T06:06:43;1.10;1.00
15003;DHT22;7597;53.590;10.020;2022-12-07T06:09:10;1.00;1.00
15003;DHT22;7597;53.590;10.020;2022-12-07T06:11:36;1.10;1.00
15003;DHT22;7597;53.590;10.020;2022-12-07T06:14:08;1.10;1.00
15003;DHT22;7597;53.590;10.020;2022-12-07T06:16:35;1.10;1.00
15003;DHT22;7597;53.590;10.020;2022-12-07T06:19:01;1.00;1.00
15003;DHT22;7597;53.590;10.020;2022-12-07T06:21:28;1.00;1.00
15003;DHT22;7597;53.590;10.020;2022-12-07T06:23:55;0.90;1.00
15003;DHT22;7597;53.590;10.020;2022-12-07T06:26:21;1.00;1.00
15003;DHT22;7597;53.590;10.020;2022-12-07T06:28:48;1.10;1.00
15003;DHT22;7597;53.590;10.020;2022-12-07T06:31:15;1.20;1.00
15003;DHT22;7597;53.590;10.020;2022-12-07T06:33:42;1.10;1.00
15003;DHT22;7597;53.590;10.020;2022-12-07T06:36:08;1.10;1.00
15003;DHT22;7597;53.590;10.020;2022-12-07T06:38:35;1.10;1.00
15003;DHT22;7597;53.590;10.020;2022-12-07T06:41:01;1.00;1.00
15003;DHT22;7597;53.590;10.020;2022-12-07T06:43:28;1.10;1.00
15003;DHT22;7597;53.590;10.020;2022-12-07T06:45:55;1.10;1.00
15003;DHT22;7597;53.590;10.020;2022-12-07T06:48:21;1.20;1.00
15003;DHT22;7597;53.590;10.020;2022-12-07T06:50:48;1.30;1.00
15003;DHT22;7597;53.590;10.020;2022-12-07T06:53:15;1.30;1.00
15003;DHT22;7597;53.590;10.020;2022-12-07T06:55:41;1.40;1.00
15003;DHT22;7597;53.590;10.020;2022-12-07T06:58:08;1.50;1.00
15003;DHT22;7597;53.590;10.020;2022-12-07T07:00:35;1.50;1.00
15003;DHT22;7597;53.590;10.020;2022-12-07T07:03:01;1.50;1.00
15003;DHT22;7597;53.590;10.020;2022-12-07T07:05:28;1.50;1.00
15003;DHT22;7597;53.590;10.020;2022-12-07T07:07:55;1.60;1.00
15003;DHT22;7597;53.590;10.020;2022-12-07T07:10:21;1.60;1.00
15003;DHT22;7597;53.590;10.020;2022-12-07T07:12:48;1.70;1.00
15003;DHT22;7597;53.590;10.020;2022-12-07T07:15:15;1.80;1.00
15003;DHT22;7597;53.590;10.020;2022-12-07T07:17:41;1.80;1.00
15003;DHT22;7597;53.590;10.020;2022-12-07T07:20:08;1.90;1.00
15003;DHT22;7597;53.590;10.020;2022-12-07T07:22:35;1.90;1.00
15003;DHT22;7597;53.590;10.020;2022-12-07T07:25:02;1.90;1.00
15003;DHT22;7597;53.590;10.020;2022-12-07T07:27:29;1.90;1.00
15003;DHT22;7597;53.590;10.020;2022-12-07T07:29:55;1.90;1.00
15003;DHT22;7597;53.590;10.020;2022-12-07T07:32:22;1.90;1.00
15003;DHT22;7597;53.590;10.020;2022-12-07T07:34:49;2.40;1.00
15003;DHT22;7597;53.590;10.020;2022-12-07T07:37:15;2.00;1.00
15003;DHT22;7597;53.590;10.020;2022-12-07T07:39:42;2.00;1.00
15003;DHT22;7597;53.590;10.020;2022-12-07T07:42:09;2.00;1.00
15003;DHT22;7597;53.590;10.020;2022-12-07T07:44:35;2.00;1.00
15003;DHT22;7597;53.590;10.020;2022-12-07T07:47:03;2.00;1.00
15003;DHT22;7597;53.590;10.020;2022-12-07T07:49:29;2.00;1.00
15003;DHT22;7597;53.590;10.020;2022-12-07T07:51:55;2.50;1.00
15003;DHT22;7597;53.590;10.020;2022-12-07T07:54:23;2.00;1.00
15003;DHT22;7597;53.590;10.020;2022-12-07T07:56:49;2.10;1.00
15003;DHT22;7597;53.590;10.020;2022-12-07T07:59:16;2.10;1.00
15003;DHT22;7597;53.590;10.020;2022-12-07T08:01:43;2.10;1.00
15003;DHT22;7597;53.590;10.020;2022-12-07T08:04:09;2.20;1.00
15003;DHT22;7597;53.590;10.020;2022-12-07T08:06:36;2.30;1.00
15003;DHT22;7597;53.590;10.020;2022-12-07T08:09:02;2.20;1.00
15003;DHT22;7597;53.590;10.020;2022-12-07T08:11:29;2.30;99.90
15003;DHT22;7597;53.590;10.020;2022-12-07T08:13:56;2.30;99.90
15003;DHT22;7597;53.590;10.020;2022-12-07T08:16:23;2.40;99.90
15003;DHT22;7597;53.590;10.020;2022-12-07T08:18:50;2.40;99.90
15003;DHT22;7597;53.590;10.020;2022-12-07T08:21:16;2.50;99.90
15003;DHT22;7597;53.590;10.020;2022-12-07T08:23:43;2.50;99.90
15003;DHT22;7597;53.590;10.020;2022-12-07T08:26:11;2.60;99.90
15003;DHT22;7597;53.590;10.020;2022-12-07T08:28:36;2.60;99.90
15003;DHT22;7597;53.590;10.020;2022-12-07T08:31:04;2.70;99.90
15003;DHT22;7597;53.590;10.020;2022-12-07T08:33:30;2.70;99.90
15003;DHT22;7597;53.590;10.020;2022-12-07T08:36:05;2.70;99.90
15003;DHT22;7597;53.590;10.020;2022-12-07T08:38:31;3.10;99.90
15003;DHT22;7597;53.590;10.020;2022-12-07T08:40:58;2.90;99.90
15003;DHT22;7597;53.590;10.020;2022-12-07T08:43:24;2.90;99.90
15003;DHT22;7597;53.590;10.020;2022-12-07T08:46:02;3.00;99.90
15003;DHT22;7597;53.590;10.020;2022-12-07T08:48:23;3.00;99.90
15003;DHT22;7597;53.590;10.020;2022-12-07T08:50:50;3.10;99.90
15003;DHT22;7597;53.590;10.020;2022-12-07T08:53:17;3.10;99.90
15003;DHT22;7597;53.590;10.020;2022-12-07T08:55:45;3.20;99.90
15003;DHT22;7597;53.590;10.020;2022-12-07T08:58:11;3.20;99.90
15003;DHT22;7597;53.590;10.020;2022-12-07T09:00:37;3.30;99.90
15003;DHT22;7597;53.590;10.020;2022-12-07T09:03:04;3.30;99.90
15003;DHT22;7597;53.590;10.020;2022-12-07T09:05:31;3.40;99.90
15003;DHT22;7597;53.590;10.020;2022-12-07T09:07:58;3.90;99.90
15003;DHT22;7597;53.590;10.020;2022-12-07T09:10:24;3.60;99.90
15003;DHT22;7597;53.590;10.020;2022-12-07T09:12:51;3.60;99.90
15003;DHT22;7597;53.590;10.020;2022-12-07T09:15:17;3.70;99.90
15003;DHT22;7597;53.590;10.020;2022-12-07T09:17:44;3.80;99.90
15003;DHT22;7597;53.590;10.020;2022-12-07T09:20:11;3.80;99.90
15003;DHT22;7597;53.590;10.020;2022-12-07T09:22:38;3.90;99.90
15003;DHT22;7597;53.590;10.020;2022-12-07T09:25:06;3.90;99.90
15003;DHT22;7597;53.590;10.020;2022-12-07T09:27:33;3.90;99.90
15003;DHT22;7597;53.590;10.020;2022-12-07T09:30:00;4.00;99.90
15003;DHT22;7597;53.590;10.020;2022-12-07T09:32:28;4.00;99.90
15003;DHT22;7597;53.590;10.020;2022-12-07T09:34:54;4.00;99.90
15003;DHT22;7597;53.590;10.020;2022-12-07T09:37:21;4.00;99.90
15003;DHT22;7597;53.590;10.020;2022-12-07T09:39:48;4.10;99.90
15003;DHT22;7597;53.590;10.020;2022-12-07T09:42:28;4.10;99.90
15003;DHT22;7597;53.590;10.020;2022-12-07T09:44:53;4.20;99.90
15003;DHT22;7597;53.590;10.020;2022-12-07T09:47:19;4.20;99.90
15003;DHT22;7597;53.590;10.020;2022-12-07T09:50:04;4.30;99.90
15003;DHT22;7597;53.590;10.020;2022-12-07T09:52:30;4.30;99.90
15003;DHT22;7597;53.590;10.020;2022-12-07T09:54:57;4.40;99.30
15003;DHT22;7597;53.590;10.020;2022-12-07T09:57:28;4.40;97.80
15003;DHT22;7597;53.590;10.020;2022-12-07T09:59:55;4.40;95.40
15003;DHT22;7597;53.590;10.020;2022-12-07T10:02:24;4.40;92.20
15003;DHT22;7597;53.590;10.020;2022-12-07T10:04:50;4.80;93.00
15003;DHT22;7597;53.590;10.020;2022-12-07T10:07:16;4.40;91.50
15003;DHT22;7597;53.590;10.020;2022-12-07T10:09:43;4.50;90.60
15003;DHT22;7597;53.590;10.020;2022-12-07T10:12:11;4.50;88.80
15003;DHT22;7597;53.590;10.020;2022-12-07T10:14:38;4.50;87.40
15003;DHT22;7597;53.590;10.020;2022-12-07T10:17:22;4.60;83.40
15003;DHT22;7597;53.590;10.020;2022-12-07T10:19:30;4.60;84.50
15003;DHT22;7597;53.590;10.020;2022-12-07T10:22:03;4.70;77.50
15003;DHT22;7597;53.590;10.020;2022-12-07T10:24:29;4.60;57.80
15003;DHT22;7597;53.590;10.020;2022-12-07T10:26:56;4.70;44.70
15003;DHT22;7597;53.590;10.020;2022-12-07T10:29:27;4.70;39.40
15003;DHT22;7597;53.590;10.020;2022-12-07T10:31:56;4.70;40.00
15003;DHT22;7597;53.590;10.020;2022-12-07T10:34:25;4.90;30.90
15003;DHT22;7597;53.590;10.020;2022-12-07T10:36:51;4.70;23.30
15003;DHT22;7597;53.590;10.020;2022-12-07T10:39:19;4.90;18.20
15003;DHT22;7597;53.590;10.020;2022-12-07T10:41:53;4.70;20.00
15003;DHT22;7597;53.590;10.020;2022-12-07T10:44:21;4.70;16.10
15003;DHT22;7597;53.590;10.020;2022-12-07T10:47:00;4.70;16.40
15003;DHT22;7597;53.590;10.020;2022-12-07T10:49:49;4.80;17.70
15003;DHT22;7597;53.590;10.020;2022-12-07T10:52:45;4.90;9.40
15003;DHT22;7597;53.590;10.020;2022-12-07T10:58:31;5.30;1.00
15003;DHT22;7597;53.590;10.020;2022-12-07T11:00:43;5.50;1.00
15003;DHT22;7597;53.590;10.020;2022-12-07T11:03:27;5.80;1.00
15003;DHT22;7597;53.590;10.020;2022-12-07T11:08:44;6.60;1.00
15003;DHT22;7597;53.590;10.020;2022-12-07T11:11:16;6.60;1.00
15003;DHT22;7597;53.590;10.020;2022-12-07T11:13:56;6.80;1.00
15003;DHT22;7597;53.590;10.020;2022-12-07T11:16:23;6.80;1.00
15003;DHT22;7597;53.590;10.020;2022-12-07T11:19:29;6.60;1.00
15003;DHT22;7597;53.590;10.020;2022-12-07T11:22:50;6.40;1.00
15003;DHT22;7597;53.590;10.020;2022-12-07T11:24:46;6.20;1.00
15003;DHT22;7597;53.590;10.020;2022-12-07T11:27:23;6.00;1.00
15003;DHT22;7597;53.590;10.020;2022-12-07T11:29:50;5.70;1.00
15003;DHT22;7597;53.590;10.020;2022-12-07T11:32:39;6.10;1.00
15003;DHT22;7597;53.590;10.020;2022-12-07T11:37:35;5.50;1.00
15003;DHT22;7597;53.590;10.020;2022-12-07T11:40:03;5.40;1.00
15003;DHT22;7597;53.590;10.020;2022-12-07T11:42:36;5.40;1.00
15003;DHT22;7597;53.590;10.020;2022-12-07T11:45:02;5.40;1.00
15003;DHT22;7597;53.590;10.020;2022-12-07T11:50:37;5.40;1.00
15003;DHT22;7597;53.590;10.020;2022-12-07T11:53:09;5.40;1.00
15003;DHT22;7597;53.590;10.020;2022-12-07T11:55:39;5.40;1.00
15003;DHT22;7597;53.590;10.020;2022-12-07T11:58:18;5.50;1.00
15003;DHT22;7597;53.590;10.020;2022-12-07T12:00:41;5.50;1.00
15003;DHT22;7597;53.590;10.020;2022-12-07T12:03:09;5.50;1.00
15003;DHT22;7597;53.590;10.020;2022-12-07T12:05:35;5.60;1.00
15003;DHT22;7597;53.590;10.020;2022-12-07T12:08:11;5.80;1.00
15003;DHT22;7597;53.590;10.020;2022-12-07T12:10:37;5.90;1.00
15003;DHT22;7597;53.590;10.020;2022-12-07T12:13:23;5.90;1.00
15003;DHT22;7597;53.590;10.020;2022-12-07T12:16:07;6.00;1.00
15003;DHT22;7597;53.590;10.020;2022-12-07T12:18:52;6.10;1.00
15003;DHT22;7597;53.590;10.020;2022-12-07T12:21:17;6.10;1.00
15003;DHT22;7597;53.590;10.020;2022-12-07T12:23:59;6.50;1.00
15003;DHT22;7597;53.590;10.020;2022-12-07T12:26:34;6.10;1.00
15003;DHT22;7597;53.590;10.020;2022-12-07T12:29:18;6.00;1.00
15003;DHT22;7597;53.590;10.020;2022-12-07T12:31:38;5.90;1.00
15003;DHT22;7597;53.590;10.020;2022-12-07T12:36:46;5.90;1.00
15003;DHT22;7597;53.590;10.020;2022-12-07T12:39:23;6.00;1.00
15003;DHT22;7597;53.590;10.020;2022-12-07T12:42:00;6.00;1.00
15003;DHT22;7597;53.590;10.020;2022-12-07T12:44:41;6.10;1.00
15003;DHT22;7597;53.590;10.020;2022-12-07T12:50:12;6.30;1.00
15003;DHT22;7597;53.590;10.020;2022-12-07T12:52:52;6.40;1.00
15003;DHT22;7597;53.590;10.020;2022-12-07T12:55:20;6.30;1.00
15003;DHT22;7597;53.590;10.020;2022-12-07T13:00:28;6.10;1.00
15003;DHT22;7597;53.590;10.020;2022-12-07T13:02:58;6.10;1.00
15003;DHT22;7597;53.590;10.020;2022-12-07T13:05:29;6.00;1.00
15003;DHT22;7597;53.590;10.020;2022-12-07T13:07:58;6.00;1.00
15003;DHT22;7597;53.590;10.020;2022-12-07T13:10:35;6.00;1.00
15003;DHT22;7597;53.590;10.020;2022-12-07T13:15:42;6.00;1.00
15003;DHT22;7597;53.590;10.020;2022-12-07T13:29:50;5.90;1.00
15003;DHT22;7597;53.590;10.020;2022-12-07T13:32:33;5.80;1.00
15003;DHT22;7597;53.590;10.020;2022-12-07T13:35:05;5.80;1.00
15003;DHT22;7597;53.590;10.020;2022-12-07T13:37:30;5.70;1.00
15003;DHT22;7597;53.590;10.020;2022-12-07T13:39:59;5.70;1.00
15003;DHT22;7597;53.590;10.020;2022-12-07T13:42:28;5.80;1.00
15003;DHT22;7597;53.590;10.020;2022-12-07T13:44:55;5.80;1.00
15003;DHT22;7597;53.590;10.020;2022-12-07T13:47:31;5.80;1.00
15003;DHT22;7597;53.590;10.020;2022-12-07T13:49:55;5.80;1.00
15003;DHT22;7597;53.590;10.020;2022-12-07T13:52:28;5.70;1.00
15003;DHT22;7597;53.590;10.020;2022-12-07T13:54:58;5.60;1.00
15003;DHT22;7597;53.590;10.020;2022-12-07T13:57:27;5.50;1.00
15003;DHT22;7597;53.590;10.020;2022-12-07T13:59:54;5.40;1.00
15003;DHT22;7597;53.590;10.020;2022-12-07T14:02:25;5.20;1.00
15003;DHT22;7597;53.590;10.020;2022-12-07T14:04:50;5.30;1.00
15003;DHT22;7597;53.590;10.020;2022-12-07T14:07:20;5.10;1.00
15003;DHT22;7597;53.590;10.020;2022-12-07T14:09:53;5.00;1.00
15003;DHT22;7597;53.590;10.020;2022-12-07T14:12:20;4.90;1.00
15003;DHT22;7597;53.590;10.020;2022-12-07T14:14:47;5.00;1.00
15003;DHT22;7597;53.590;10.020;2022-12-07T14:17:19;4.80;1.00
15003;DHT22;7597;53.590;10.020;2022-12-07T14:19:55;4.70;1.00
15003;DHT22;7597;53.590;10.020;2022-12-07T14:22:27;4.70;1.00
15003;DHT22;7597;53.590;10.020;2022-12-07T14:25:01;4.60;1.00
15003;DHT22;7597;53.590;10.020;2022-12-07T14:27:30;4.50;1.00
15003;DHT22;7597;53.590;10.020;2022-12-07T14:29:53;4.50;1.00
15003;DHT22;7597;53.590;10.020;2022-12-07T14:32:23;4.40;1.00
15003;DHT22;7597;53.590;10.020;2022-12-07T14:34:59;4.30;1.00
15003;DHT22;7597;53.590;10.020;2022-12-07T14:37:25;4.20;1.00
15003;DHT22;7597;53.590;10.020;2022-12-07T14:39:51;4.20;1.00
15003;DHT22;7597;53.590;10.020;2022-12-07T14:42:19;4.00;1.00
15003;DHT22;7597;53.590;10.020;2022-12-07T14:44:45;3.90;1.00
15003;DHT22;7597;53.590;10.020;2022-12-07T14:47:13;3.80;1.00
15003;DHT22;7597;53.590;10.020;2022-12-07T14:49:40;3.70;1.00
15003;DHT22;7597;53.590;10.020;2022-12-07T14:52:08;3.60;1.00
15003;DHT22;7597;53.590;10.020;2022-12-07T14:54:33;3.40;1.00
15003;DHT22;7597;53.590;10.020;2022-12-07T14:56:59;3.30;1.00
15003;DHT22;7597;53.590;10.020;2022-12-07T14:59:26;3.20;1.00
15003;DHT22;7597;53.590;10.020;2022-12-07T15:01:53;3.00;1.00
15003;DHT22;7597;53.590;10.020;2022-12-07T15:04:19;2.90;1.00
15003;DHT22;7597;53.590;10.020;2022-12-07T15:07:01;2.70;1.00
15003;DHT22;7597;53.590;10.020;2022-12-07T15:09:27;2.60;1.00
15003;DHT22;7597;53.590;10.020;2022-12-07T15:11:56;2.40;1.00
15003;DHT22;7597;53.590;10.020;2022-12-07T15:14:23;2.40;1.00
15003;DHT22;7597;53.590;10.020;2022-12-07T15:16:50;2.40;1.00
15003;DHT22;7597;53.590;10.020;2022-12-07T15:19:18;2.30;1.00
15003;DHT22;7597;53.590;10.020;2022-12-07T15:21:44;2.30;1.00
15003;DHT22;7597;53.590;10.020;2022-12-07T15:24:11;2.50;1.00
15003;DHT22;7597;53.590;10.020;2022-12-07T15:26:38;2.40;1.00
15003;DHT22;7597;53.590;10.020;2022-12-07T15:29:04;2.50;1.00
15003;DHT22;7597;53.590;10.020;2022-12-07T15:31:32;2.70;1.00
15003;DHT22;7597;53.590;10.020;2022-12-07T15:33:58;2.50;1.00
15003;DHT22;7597;53.590;10.020;2022-12-07T15:36:27;2.50;1.00
15003;DHT22;7597;53.590;10.020;2022-12-07T15:38:53;2.40;1.00
15003;DHT22;7597;53.590;10.020;2022-12-07T15:41:20;2.50;1.00
15003;DHT22;7597;53.590;10.020;2022-12-07T15:43:46;2.30;1.00
15003;DHT22;7597;53.590;10.020;2022-12-07T15:46:19;2.30;1.00
15003;DHT22;7597;53.590;10.020;2022-12-07T15:48:45;2.20;1.00
15003;DHT22;7597;53.590;10.020;2022-12-07T15:51:14;2.50;1.00
15003;DHT22;7597;53.590;10.020;2022-12-07T15:53:40;2.00;1.00
15003;DHT22;7597;53.590;10.020;2022-12-07T15:56:07;1.90;1.00
15003;DHT22;7597;53.590;10.020;2022-12-07T15:58:34;1.80;1.00
15003;DHT22;7597;53.590;10.020;2022-12-07T16:01:09;1.70;1.00
15003;DHT22;7597;53.590;10.020;2022-12-07T16:03:28;1.70;1.00
15003;DHT22;7597;53.590;10.020;2022-12-07T16:05:54;1.60;1.00
15003;DHT22;7597;53.590;10.020;2022-12-07T16:08:21;1.60;1.00
15003;DHT22;7597;53.590;10.020;2022-12-07T16:10:47;1.60;1.00
15003;DHT22;7597;53.590;10.020;2022-12-07T16:13:14;1.60;1.00
15003;DHT22;7597;53.590;10.020;2022-12-07T16:15:43;1.50;1.00
15003;DHT22;7597;53.590;10.020;2022-12-07T16:18:11;1.50;1.00
15003;DHT22;7597;53.590;10.020;2022-12-07T16:20:38;1.40;1.00
15003;DHT22;7597;53.590;10.020;2022-12-07T16:23:05;1.40;1.00
15003;DHT22;7597;53.590;10.020;2022-12-07T16:25:32;1.30;1.00
15003;DHT22;7597;53.590;10.020;2022-12-07T16:28:01;1.30;1.00
15003;DHT22;7597;53.590;10.020;2022-12-07T16:30:29;1.20;1.00
15003;DHT22;7597;53.590;10.020;2022-12-07T16:33:05;1.20;1.00
15003;DHT22;7597;53.590;10.020;2022-12-07T16:35:38;1.10;1.00
15003;DHT22;7597;53.590;10.020;2022-12-07T16:38:10;1.10;1.00
15003;DHT22;7597;53.590;10.020;2022-12-07T16:40:44;1.10;1.00
15003;DHT22;7597;53.590;10.020;2022-12-07T16:43:11;1.00;1.00
15003;DHT22;7597;53.590;10.020;2022-12-07T16:45:40;0.90;1.00
15003;DHT22;7597;53.590;10.020;2022-12-07T16:48:08;0.90;1.00
15003;DHT22;7597;53.590;10.020;2022-12-07T16:50:36;0.80;1.00
15003;DHT22;7597;53.590;10.020;2022-12-07T16:53:04;0.70;1.00